Time;durP1;ratioP1;P1;durP2;ratioP2;P2;SDS_P1;SDS_P2;PMS_P1;PMS_P2;Temp;Humidity;BMP_temperature;BMP_pressure;BME280_temperature;BME280_humidity;BME280_pressure;Samples;Min_cycle;Max_cycle;Signal;HPM_P1;HPM_P2
2022/11/30 00:00:08;;;;;;;28.45;17.50;;;;;;;;;;6231721;23;20023;-88
2022/11/30 00:02:34;;;;;;;26.30;16.65;;;;;;;;;;6230058;23;20024;-91
2022/11/30 00:05:00;;;;;;;25.50;16.30;;;;;;;;;;6227282;23;20016;-92
2022/11/30 00:07:28;;;;;;;27.67;16.67;;;;;;;;;;6228364;23;20055;-89
2022/11/30 00:09:54;;;;;;;26.30;15.68;;;;;;;;;;6226496;23;20016;-91
2022/11/30 00:12:20;;;;;;;66.85;15.20;;;;;;;;;;6225980;23;20024;-91
2022/11/30 00:14:46;;;;;;;92.28;14.45;;;;;;;;;;6176846;23;20023;-90
2022/11/30 00:17:13;;;;;;;17.40;9.73;;;;;;;;;;6172296;23;20108;-93
2022/11/30 00:19:39;;;;;;;94.40;14.07;;;;;;;;;;6164560;23;20349;-91
2022/11/30 00:22:05;;;;;;;98.93;12.93;;;;;;;;;;6164738;23;20020;-92
2022/11/30 00:24:31;;;;;;;266.42;20.45;;;;;;;;;;6214779;23;20020;-93
2022/11/30 00:26:57;;;;;;;181.75;17.35;;;;;;;;;;6214405;23;20056;-91
2022/11/30 00:29:23;;;;;;;19.50;8.82;;;;;;;;;;6213944;23;20037;-90
2022/11/30 00:31:49;;;;;;;251.30;20.83;;;;;;;;;;6164214;23;20047;-91
2022/11/30 00:34:15;;;;;;;86.72;15.80;;;;;;;;;;6164513;23;20063;-89
2022/11/30 00:36:41;;;;;;;54.00;12.25;;;;;;;;;;6164203;23;20013;-90
2022/11/30 00:39:07;;;;;;;21.75;10.93;;;;;;;;;;6183947;23;20484;-90
2022/11/30 00:41:33;;;;;;;22.25;9.38;;;;;;;;;;6190090;23;20016;-90
2022/11/30 00:43:59;;;;;;;44.50;10.40;;;;;;;;;;6190042;23;20048;-90
2022/11/30 00:46:26;;;;;;;122.18;16.48;;;;;;;;;;6189997;23;20527;-90
2022/11/30 00:48:52;;;;;;;71.13;13.27;;;;;;;;;;6189776;23;20093;-91
2022/11/30 00:51:19;;;;;;;40.88;13.77;;;;;;;;;;6190280;23;20051;-91
2022/11/30 00:53:46;;;;;;;62.67;11.35;;;;;;;;;;6189917;23;20107;-89
2022/11/30 00:56:12;;;;;;;55.42;12.20;;;;;;;;;;6214913;23;20020;-90
2022/11/30 00:58:38;;;;;;;32.03;12.35;;;;;;;;;;6189795;23;20017;-90
2022/11/30 01:01:05;;;;;;;39.40;13.40;;;;;;;;;;6215987;23;20024;-91
2022/11/30 01:03:33;;;;;;;24.75;12.38;;;;;;;;;;6214888;23;20472;-90
2022/11/30 01:06:03;;;;;;;19.70;11.63;;;;;;;;;;6215518;23;20025;-90
2022/11/30 01:08:32;;;;;;;21.88;13.23;;;;;;;;;;6191332;23;20017;-90
2022/11/30 01:11:04;;;;;;;22.25;13.00;;;;;;;;;;6193598;23;20020;-91
2022/11/30 01:13:30;;;;;;;21.23;13.57;;;;;;;;;;6192150;23;20389;-90
2022/11/30 01:15:56;;;;;;;23.08;13.77;;;;;;;;;;6192541;23;20099;-90
2022/11/30 01:18:22;;;;;;;21.65;13.00;;;;;;;;;;6190501;23;20350;-92
2022/11/30 01:20:48;;;;;;;23.77;15.32;;;;;;;;;;6192617;23;20357;-96
2022/11/30 01:23:14;;;;;;;22.90;13.25;;;;;;;;;;6192422;23;20398;-96
2022/11/30 01:25:40;;;;;;;21.20;14.20;;;;;;;;;;6191185;23;20020;-96
2022/11/30 01:28:08;;;;;;;23.00;13.55;;;;;;;;;;6190751;23;20048;-89
2022/11/30 01:30:34;;;;;;;20.50;13.55;;;;;;;;;;6189678;23;20185;-89
2022/11/30 01:33:04;;;;;;;21.73;13.73;;;;;;;;;;6190726;23;20017;-92
2022/11/30 01:35:30;;;;;;;21.30;12.75;;;;;;;;;;6214840;23;20106;-88
2022/11/30 01:37:56;;;;;;;23.83;13.25;;;;;;;;;;6189497;23;20473;-93
2022/11/30 01:40:22;;;;;;;22.60;14.20;;;;;;;;;;6189922;23;20016;-96
2022/11/30 01:42:49;;;;;;;20.25;13.38;;;;;;;;;;6189753;23;20017;-88
2022/11/30 01:45:15;;;;;;;21.30;13.63;;;;;;;;;;6190864;23;20071;-90
2022/11/30 01:47:43;;;;;;;23.33;14.73;;;;;;;;;;6192409;23;20023;-92
2022/11/30 01:50:11;;;;;;;21.52;14.20;;;;;;;;;;6218676;23;20027;-91
2022/11/30 01:52:46;;;;;;;21.00;13.85;;;;;;;;;;6196748;23;20103;-88
2022/11/30 01:55:20;;;;;;;20.98;14.00;;;;;;;;;;6199722;23;20515;-88
2022/11/30 01:57:57;;;;;;;24.52;15.23;;;;;;;;;;6198823;23;20078;-90
2022/11/30 02:00:24;;;;;;;23.73;14.10;;;;;;;;;;6223793;23;20021;-88
2022/11/30 02:03:10;;;;;;;27.13;15.23;;;;;;;;;;6199194;23;20393;-88
2022/11/30 02:05:37;;;;;;;25.85;15.93;;;;;;;;;;6196262;23;20044;-91
2022/11/30 02:08:04;;;;;;;30.88;17.85;;;;;;;;;;6220311;23;20012;-88
2022/11/30 02:10:31;;;;;;;26.85;16.15;;;;;;;;;;6196349;23;20470;-88
2022/11/30 02:13:16;;;;;;;28.13;16.20;;;;;;;;;;6220773;23;20016;-88
2022/11/30 02:15:46;;;;;;;26.02;16.10;;;;;;;;;;6195384;23;20013;-91
2022/11/30 02:18:14;;;;;;;28.38;16.23;;;;;;;;;;6221839;23;20055;-88
2022/11/30 02:20:49;;;;;;;27.85;17.05;;;;;;;;;;6223648;23;20076;-88
2022/11/30 02:23:52;;;;;;;27.90;15.68;;;6.00;99.90;;;;;;6198517;23;20013;-88
2022/11/30 02:26:37;;;;;;;30.33;17.33;;;;;;;;;;6222099;23;20463;-88
2022/11/30 02:29:12;;;;;;;27.33;16.67;;;;;;;;;;6201578;23;20017;-94
2022/11/30 02:31:49;;;;;;;34.03;16.30;;;;;;;;;;6198841;23;20418;-93
2022/11/30 02:34:15;;;;;;;28.23;16.90;;;;;;;;;;6224774;23;20024;-96
2022/11/30 02:36:42;;;;;;;29.13;16.58;;;;;;;;;;6193976;23;20017;-89
2022/11/30 02:39:09;;;;;;;25.05;16.30;;;;;;;;;;6194332;23;20066;-89
2022/11/30 02:41:36;;;;;;;31.20;17.02;;;;;;;;;;6218989;23;20074;-89
2022/11/30 02:44:03;;;;;;;31.92;17.40;;;;;;;;;;6192907;23;20071;-96
2022/11/30 02:46:38;;;;;;;32.92;17.73;;;;;;;;;;6193082;23;20017;-91
2022/11/30 02:49:09;;;;;;;31.30;18.40;;;;;;;;;;6192995;23;20017;-89
2022/11/30 02:51:37;;;;;;;30.83;17.58;;;;;;;;;;6194046;23;20074;-94
2022/11/30 02:54:03;;;;;;;28.80;18.05;;;;;;;;;;6219494;23;20351;-94
2022/11/30 02:56:29;;;;;;;29.80;18.08;;;;;;;;;;6218936;23;20096;-95
2022/11/30 02:58:55;;;;;;;33.58;18.27;;;;;;;;;;6195330;23;20086;-90
2022/11/30 03:01:22;;;;;;;25.55;16.00;;;;;;;;;;6191968;23;20013;-91
2022/11/30 03:03:48;;;;;;;30.00;17.90;;;;;;;;;;6192723;23;20028;-95
2022/11/30 03:06:14;;;;;;;40.17;20.00;;;;;;;;;;6192743;23;20035;-90
2022/11/30 03:08:40;;;;;;;30.10;17.90;;;;;;;;;;6218406;23;20052;-92
2022/11/30 03:11:06;;;;;;;22.55;13.52;;;;;;;;;;6190767;23;20438;-89
2022/11/30 03:13:32;;;;;;;23.00;13.85;;;;;;;;;;6191124;23;20017;-90
2022/11/30 03:15:58;;;;;;;22.88;13.80;;;;;;;;;;6190585;23;20021;-90
2022/11/30 03:18:24;;;;;;;24.45;15.00;;;;;;;;;;6215569;23;20501;-89
2022/11/30 03:20:50;;;;;;;31.40;16.67;;;;;;;;;;6190319;23;20024;-90
2022/11/30 03:23:16;;;;;;;30.75;16.92;;;;;;;;;;6215496;23;20021;-89
2022/11/30 03:25:42;;;;;;;29.15;18.27;;;;;;;;;;6190955;23;20016;-90
2022/11/30 03:28:08;;;;;;;31.80;18.85;;;;;;;;;;6191263;23;20461;-89
2022/11/30 03:30:34;;;;;;;39.22;20.33;;;;;;;;;;6190492;23;20016;-89
2022/11/30 03:33:00;;;;;;;41.40;19.73;;;;;;;;;;6191886;23;20036;-90
2022/11/30 03:35:26;;;;;;;37.95;19.98;;;;;;;;;;6190627;23;20449;-89
2022/11/30 03:37:52;;;;;;;35.08;19.70;;;;;;;;;;6215687;23;20039;-91
2022/11/30 03:40:21;;;;;;;33.58;19.13;;;;;;;;;;6215595;23;20013;-91
2022/11/30 03:42:50;;;;;;;29.13;17.35;;;;;;;;;;6215412;23;20031;-90
2022/11/30 03:45:17;;;;;;;31.80;19.55;;;;;;;;;;6190258;23;20047;-90
2022/11/30 03:47:43;;;;;;;34.67;20.35;;;;;;;;;;6215805;23;20023;-89
2022/11/30 03:50:10;;;;;;;24.73;17.15;;;;;;;;;;6216724;23;20029;-89
2022/11/30 03:52:37;;;;;;;31.08;18.00;;;;;;;;;;6195226;23;20016;-89
2022/11/30 03:55:04;;;;;;;34.28;19.63;;;;;;;;;;6195383;23;20016;-90
2022/11/30 03:57:30;;;;;;;35.22;19.08;;;;;;;;;;6196423;23;20019;-90
2022/11/30 03:59:56;;;;;;;35.97;20.88;;;;;;;;;;6200781;23;20048;-89
2022/11/30 04:02:23;;;;;;;42.33;21.15;;;;;;;;;;6250690;23;20337;-89
2022/11/30 04:04:49;;;;;;;40.75;21.45;;;;;;;;;;6222070;23;20023;-90
2022/11/30 04:07:15;;;;;;;42.70;22.27;;;;;;;;;;6221185;23;20420;-89
2022/11/30 04:09:41;;;;;;;38.60;21.80;;;;;;;;;;6222396;23;20020;-91
2022/11/30 04:12:07;;;;;;;41.40;22.65;;;;;;;;;;6196914;23;20322;-89
2022/11/30 04:14:33;;;;;;;35.05;20.40;;;;;;;;;;6197347;23;20016;-89
2022/11/30 04:16:59;;;;;;;37.65;21.92;;;;;;;;;;6221999;23;20526;-93
2022/11/30 04:19:25;;;;;;;40.58;21.60;;;;;;;;;;6195628;23;20020;-94
2022/11/30 04:21:51;;;;;;;34.50;21.60;;;;;;;;;;6196062;23;20020;-89
2022/11/30 04:24:17;;;;;;;39.88;22.48;;;;;;;;;;6196570;23;20016;-89
2022/11/30 04:26:44;;;;;;;38.00;21.02;;;;;;;;;;6199480;23;20016;-89
2022/11/30 04:29:10;;;;;;;38.92;22.45;;;;;;;;;;6201572;23;20016;-89
2022/11/30 04:31:36;;;;;;;43.67;22.27;;;;;;;;;;6227660;23;20016;-88
2022/11/30 04:34:02;;;;;;;42.17;23.23;;;;;;;;;;6204324;23;20071;-88
2022/11/30 04:36:28;;;;;;;43.28;23.33;;;;;;;;;;6195233;23;20019;-90
2022/11/30 04:38:55;;;;;;;40.60;22.20;;;;;;;;;;6219808;23;20016;-90
2022/11/30 04:41:21;;;;;;;42.50;23.15;;;;;;;;;;6219968;23;20349;-89
2022/11/30 04:43:47;;;;;;;49.00;24.90;;;;;;;;;;6194852;23;20012;-91
2022/11/30 04:46:13;;;;;;;44.20;23.25;;;;;;;;;;6195531;23;20052;-90
2022/11/30 04:48:39;;;;;;;45.90;23.08;;;;;;;;;;6220059;23;20024;-89
2022/11/30 04:51:06;;;;;;;41.75;22.77;;;;;;;;;;6219285;23;20024;-90
2022/11/30 04:53:32;;;;;;;40.55;23.50;;;;;;;;;;6219848;23;20113;-90
2022/11/30 04:55:59;;;;;;;36.78;21.17;;;;;;;;;;6220062;23;20336;-91
2022/11/30 04:58:25;;;;;;;40.40;22.58;;;;;;;;;;6221038;23;20066;-90
2022/11/30 05:00:54;;;;;;;37.60;20.83;;;;;;;;;;6219844;23;20082;-90
2022/11/30 05:03:20;;;;;;;30.88;20.13;;;;;;;;;;6194581;23;20020;-89
2022/11/30 05:05:46;;;;;;;37.15;21.42;;;;;;;;;;6194661;23;20016;-89
2022/11/30 05:08:12;;;;;;;37.08;20.88;;;;;;;;;;6194626;23;20082;-90
2022/11/30 05:10:38;;;;;;;42.55;22.45;;;;;;;;;;6194491;23;20085;-90
2022/11/30 05:13:04;;;;;;;35.00;19.80;;;;;;;;;;6194867;23;20016;-90
2022/11/30 05:15:31;;;;;;;39.22;20.92;;;;;;;;;;6220985;23;20052;-90
2022/11/30 05:17:58;;;;;;;37.20;20.70;;;;;;;;;;6195824;23;20041;-91
2022/11/30 05:20:24;;;;;;;38.67;20.80;;;;;;;;;;6193841;23;20020;-91
2022/11/30 05:22:50;;;;;;;37.33;21.52;;;;;;;;;;6194597;23;20054;-89
2022/11/30 05:25:16;;;;;;;45.40;22.65;;;;;;;;;;6220742;23;20027;-89
2022/11/30 05:27:42;;;;;;;47.17;23.30;;;;;;;;;;6195716;23;20012;-89
2022/11/30 05:30:09;;;;;;;42.38;22.63;;;;;;;;;;6194391;23;20019;-91
2022/11/30 05:32:36;;;;;;;44.63;23.88;;;;;;;;;;6219397;23;20016;-90
2022/11/30 05:35:02;;;;;;;44.70;22.75;;;;;;;;;;6219501;23;20338;-90
2022/11/30 05:37:31;;;;;;;48.53;23.77;;;;;;;;;;6220477;23;20034;-90
2022/11/30 05:39:57;;;;;;;47.33;23.48;;;;;;;;;;6203209;23;20023;-91
2022/11/30 05:42:23;;;;;;;43.45;24.20;;;;;;;;;;6201675;23;20055;-90
2022/11/30 05:44:49;;;;;;;52.33;25.38;;;;;;;;;;6205868;23;20016;-91
2022/11/30 05:47:15;;;;;;;55.05;25.65;;;;;;;;;;6233347;23;20017;-89
2022/11/30 05:49:44;;;;;;;52.55;24.10;;;;;;;;;;6260799;22;20023;-88
2022/11/30 05:52:10;;;;;;;53.90;25.08;;;;;;;;;;6207787;23;20341;-91
2022/11/30 05:54:36;;;;;;;53.92;26.60;;;;;;;;;;6204740;23;20024;-90
2022/11/30 05:57:04;;;;;;;51.58;24.52;;;;;;;;;;6230175;23;20074;-88
2022/11/30 05:59:30;;;;;;;54.13;27.08;;;;;;;;;;6204970;23;20125;-88
2022/11/30 06:01:56;;;;;;;58.20;26.80;;;;;;;;;;6203538;23;20043;-88
2022/11/30 06:04:22;;;;;;;55.65;25.77;;;;;;;;;;6202660;23;20072;-89
2022/11/30 06:06:51;;;;;;;56.88;25.40;;;;;;;;;;6228647;23;20325;-88
2022/11/30 06:09:17;;;;;;;66.82;27.63;;;;;;;;;;6203771;23;20043;-88
2022/11/30 06:11:43;;;;;;;69.88;25.73;;;;;;;;;;6203623;23;20071;-88
2022/11/30 06:14:09;;;;;;;56.47;26.00;;;;;;;;;;6202315;23;20012;-87
2022/11/30 06:16:37;;;;;;;55.58;26.00;;;;;;;;;;6194303;23;20016;-88
2022/11/30 06:19:03;;;;;;;58.05;24.25;;;;;;;;;;6219079;23;20020;-88
2022/11/30 06:21:29;;;;;;;50.58;25.23;;;;;;;;;;6194756;23;20020;-89
2022/11/30 06:23:55;;;;;;;53.40;26.95;;;;;;;;;;6194127;23;20488;-89
2022/11/30 06:26:21;;;;;;;47.95;26.45;;;;;;;;;;6194902;23;20039;-89
2022/11/30 06:28:47;;;;;;;57.28;24.73;;;;;;;;;;6220033;23;20012;-91
2022/11/30 06:31:13;;;;;;;47.17;23.08;;;;;;;;;;6195248;23;20034;-90
2022/11/30 06:33:39;;;;;;;57.78;23.60;;;;;;;;;;6196883;23;20019;-90
2022/11/30 06:36:05;;;;;;;51.05;25.80;;;;;;;;;;6223325;23;20028;-91
2022/11/30 06:38:31;;;;;;;60.35;25.20;;;;;;;;;;6249927;23;20012;-91
2022/11/30 06:41:05;;;;;;;56.67;26.40;;;;;;;;;;6223401;23;20077;-92
2022/11/30 06:43:35;;;;;;;55.90;24.17;;;;;;;;;;6198792;23;20020;-90
2022/11/30 06:46:02;;;;;;;53.20;25.27;;;;;;;;;;6198352;23;20023;-90
2022/11/30 06:48:28;;;;;;;47.67;23.33;;;;;;;;;;6222500;23;20027;-90
2022/11/30 06:50:54;;;;;;;51.65;25.83;;;;;;;;;;6248765;22;20022;-90
2022/11/30 06:53:20;;;;;;;49.55;23.45;;;;;;;;;;6221802;23;20020;-90
2022/11/30 06:55:46;;;;;;;49.85;24.55;;;;;;;;;;6221261;23;20019;-90
2022/11/30 06:58:13;;;;;;;47.92;22.33;;;;;;;;;;6222009;23;20446;-90
2022/11/30 07:00:39;;;;;;;54.75;24.02;;;;;;;;;;6199256;23;20015;-90
2022/11/30 07:03:06;;;;;;;53.42;25.42;;;;;;;;;;6198152;23;20022;-90
2022/11/30 07:05:40;;;;;;;47.92;25.48;;;;;;;;;;6197485;23;20055;-92
2022/11/30 07:08:07;;;;;;;52.17;23.95;;;;;;;;;;6221959;23;20019;-91
2022/11/30 07:10:33;;;;;;;54.30;25.92;;;;;;;;;;6221267;23;20016;-89
2022/11/30 07:13:11;;;;;;;56.60;25.83;;;;;;;;;;6195618;23;20074;-89
2022/11/30 07:15:38;;;;;;;59.13;27.40;;;;;;;;;;6195779;23;20052;-91
2022/11/30 07:18:04;;;;;;;56.13;24.60;;;;;;;;;;6197499;23;20020;-91
2022/11/30 07:20:30;;;;;;;50.22;24.55;;;;;;;;;;6195825;23;20012;-91
2022/11/30 07:22:56;;;;;;;45.17;24.10;;;;;;;;;;6221836;23;20020;-91
2022/11/30 07:28:07;;;;;;;51.30;22.15;;;;;;;;;;6221099;23;20024;-91
2022/11/30 07:30:34;;;;;;;48.03;23.35;;;;;;;;;;6195398;23;20103;-89
2022/11/30 07:33:00;;;;;;;59.10;22.52;;;;;;;;;;6221383;23;20016;-91
2022/11/30 07:35:26;;;;;;;41.72;21.27;;;;;;;;;;6195497;23;20375;-89
2022/11/30 07:37:52;;;;;;;43.58;22.13;;;;;;;;;;6247905;23;20459;-90
2022/11/30 07:40:18;;;;;;;47.10;22.73;;;;;;;;;;6195004;23;20012;-90
2022/11/30 07:42:44;;;;;;;42.70;22.70;;;;;;;;;;6219577;23;20055;-90
2022/11/30 07:45:10;;;;;;;40.00;21.75;;;;;;;;;;6246795;23;20020;-89
2022/11/30 07:47:36;;;;;;;43.15;21.70;;;;;;;;;;6195131;23;20044;-89
2022/11/30 07:50:02;;;;;;;42.50;22.52;;;;;;;;;;6195440;23;20017;-90
2022/11/30 07:52:30;;;;;;;40.25;20.92;;;;;;;;;;6221126;23;20429;-88
2022/11/30 07:54:56;;;;;;;39.42;20.75;;;;;;;;;;6195214;23;20357;-92
2022/11/30 07:57:22;;;;;;;41.80;22.02;;;;;;;;;;6220745;23;20483;-92
2022/11/30 07:59:48;;;;;;;41.63;22.48;;;;;;;;;;6195180;23;20055;-88
2022/11/30 08:02:14;;;;;;;42.95;21.75;;;;;;;;;;6222051;23;20016;-94
2022/11/30 08:04:40;;;;;;;37.05;21.98;;;;;;;;;;6222370;23;20012;-94
2022/11/30 08:07:09;;;;;;;41.65;22.98;;;;;;;;;;6230271;23;20020;-95
2022/11/30 08:09:37;;;;;;;38.45;23.08;;;;;;;;;;6206658;23;20024;-92
2022/11/30 08:12:03;;;;;;;40.92;22.42;;;;;;;;;;6237773;23;20068;-92
2022/11/30 08:14:39;;;;;;;;;;;;;;;;;;;;;
2022/11/30 08:17:28;;;;;;;38.85;20.75;;;;;;;;;;6259468;23;20043;-93
2022/11/30 08:20:12;;;;;;;36.28;19.73;;;;;;;;;;6183400;23;20020;-96
2022/11/30 08:22:41;;;;;;;43.90;21.85;;;;;;;;;;6209169;23;20016;-96
2022/11/30 08:25:12;;;;;;;42.00;20.98;;;;;;;;;;6207245;23;20016;-96
2022/11/30 08:31:23;;;;;;;31.73;18.40;;;;;;;;;;6237255;22;20468;-92
2022/11/30 08:34:09;;;;;;;35.45;18.67;;;;;;;;;;6248808;23;20031;-92
2022/11/30 08:39:26;;;;;;;41.70;19.40;;;;;;;;;;6302767;22;20031;-94
2022/11/30 08:42:29;;;;;;;34.53;20.33;;;;;;;;;;6256279;22;20019;-93
2022/11/30 08:54:57;;;;;;;;;;;;;;;;;;;;;
2022/11/30 09:05:38;;;;;;;40.75;19.42;;;;;;;;;;6246114;22;20023;-93
2022/11/30 09:14:06;;;;;;;43.38;20.80;;;;;;;;;;6275628;22;20051;-96
2022/11/30 09:21:44;;;;;;;36.10;20.00;;;;;;;;;;6275832;22;20209;-92
2022/11/30 09:24:39;;;;;;;35.80;20.25;;;;;;;;;;6229372;22;20034;-95
2022/11/30 09:27:05;;;;;;;38.03;19.73;;;;;;;;;;6228317;22;20011;-92
2022/11/30 09:32:02;;;;;;;47.65;21.65;;;;;;;;;;6277902;22;20023;-91
2022/11/30 09:34:28;;;;;;;39.17;20.33;;;;;;;;;;6225670;22;20114;-96
2022/11/30 10:04:35;;;;;;;47.70;23.88;;;;;;;;;;6271748;22;20023;-93
2022/11/30 10:07:07;;;;;;;48.72;23.60;;;;;;;;;;6228119;22;20058;-93
2022/11/30 12:40:36;;;;;;;43.67;25.58;;;;;;;;;;6254663;22;20024;-91
2022/11/30 12:43:43;;;;;;;;;;;;;;;;;;;;;
2022/11/30 12:49:31;;;;;;;40.88;26.35;;;;;;;;;;6248024;22;20036;-95
2022/11/30 15:35:17;;;;;;;;;;;;;;;;;;;;;
2022/11/30 17:22:54;;;;;;;76.13;35.45;;;;;;;;;;6220520;22;20024;-92
2022/11/30 22:20:25;;;;;;;68.82;32.35;;;;;;;;;;6290780;22;20019;-94
2022/11/30 22:22:52;;;;;;;73.30;33.30;;;;;;;;;;6293986;22;20042;-93
2022/11/30 22:25:18;;;;;;;71.72;36.45;;;;;;;;;;6267428;22;20015;-94
2022/11/30 22:27:44;;;;;;;66.53;33.70;;;;;;;;;;6267304;22;20047;-94
2022/11/30 22:30:10;;;;;;;69.25;34.33;;;;;;;;;;6269194;22;20022;-94
2022/11/30 22:32:37;;;;;;;78.88;35.88;;;;;;;;;;6264640;22;20015;-93
2022/11/30 22:35:04;;;;;;;68.72;33.58;;;;;;;;;;6270783;22;20062;-94
2022/11/30 22:37:30;;;;;;;80.60;33.28;;;;;;;;;;6270436;22;20012;-94
2022/11/30 22:39:56;;;;;;;83.43;35.00;;;;;;;;;;6269953;22;20016;-92
2022/11/30 22:42:23;;;;;;;73.05;34.65;;;;;;;;;;6267094;22;20019;-93
2022/11/30 22:44:49;;;;;;;78.47;34.03;;;;;;;;;;6265282;22;20020;-93
2022/11/30 22:47:18;;;;;;;74.70;35.35;;;;;;;;;;6287694;22;20027;-95
2022/11/30 22:49:44;;;;;;;78.28;35.10;;;;;;;;;;6260557;22;20038;-95
2022/11/30 22:52:10;;;;;;;90.50;36.33;;;;;;;;;;6259112;22;20464;-93
2022/11/30 22:54:36;;;;;;;84.22;35.47;;;;;;;;;;6258581;22;20023;-95
2022/11/30 22:57:02;;;;;;;84.90;34.33;;;;;;;;;;6258911;22;20020;-94
2022/11/30 22:59:30;;;;;;;81.00;33.78;;;;;;;;;;6237669;22;20107;-96
2022/11/30 23:01:56;;;;;;;86.70;36.03;;;;;;;;;;6261299;22;20011;-95
2022/11/30 23:04:23;;;;;;;78.55;35.97;;;;;;;;;;6261014;22;20024;-94
2022/11/30 23:06:49;;;;;;;92.15;38.28;;;;;;;;;;6259105;22;20081;-94
2022/11/30 23:09:18;;;;;;;88.47;38.03;;;;;;;;;;6260534;22;20019;-94
2022/11/30 23:11:44;;;;;;;88.50;36.17;;;;;;;;;;6261010;22;20071;-93
2022/11/30 23:14:11;;;;;;;88.00;35.55;;;;;;;;;;6257168;22;20016;-94
2022/11/30 23:16:37;;;;;;;83.15;36.25;;;;;;;;;;6257126;22;20016;-93
2022/11/30 23:19:03;;;;;;;86.03;36.53;;;;;;;;;;6255311;22;20041;-93
2022/11/30 23:21:31;;;;;;;81.53;35.10;;;;;;;;;;6254985;22;20026;-94
2022/11/30 23:23:59;;;;;;;79.82;35.15;;;;;;;;;;6255923;22;20050;-95
2022/11/30 23:26:26;;;;;;;82.63;35.40;;;;;;;;;;6263966;22;20512;-96
2022/11/30 23:28:53;;;;;;;71.43;33.70;;;;;;;;;;6266041;22;20055;-92
2022/11/30 23:31:20;;;;;;;83.85;34.97;;;;;;;;;;6252454;22;20452;-94
2022/11/30 23:33:47;;;;;;;77.15;34.30;;;;;;;;;;6253080;22;20079;-93
2022/11/30 23:36:17;;;;;;;83.53;37.85;;;;;;;;;;6251852;22;20449;-93
2022/11/30 23:38:44;;;;;;;84.50;35.78;;;;;;;;;;6251842;22;20023;-93
2022/11/30 23:41:11;;;;;;;79.93;35.92;;;;;;;;;;6252115;22;20491;-93
2022/11/30 23:43:37;;;;;;;80.82;35.78;;;;;;;;;;6253285;22;20043;-92
2022/11/30 23:46:04;;;;;;;75.65;34.95;;;;;;;;;;6253138;22;20077;-93
2022/11/30 23:48:30;;;;;;;80.57;34.58;;;;;;;;;;6251878;22;20098;-94
2022/11/30 23:50:56;;;;;;;81.47;36.15;;;;;;;;;;6251956;22;20051;-93
2022/11/30 23:53:23;;;;;;;74.75;35.13;;;;;;;;;;6277318;22;20512;-93
2022/11/30 23:55:49;;;;;;;71.18;33.25;;;;;;;;;;6251785;22;20023;-93
2022/11/30 23:58:15;;;;;;;83.45;34.60;;;;;;;;;;6251825;22;20019;-93
